Time;durP1;ratioP1;P1;durP2;ratioP2;P2;SDS_P1;SDS_P2;PMS_P1;PMS_P2;Temp;Humidity;BMP_temperature;BMP_pressure;BME280_temperature;BME280_humidity;BME280_pressure;Samples;Min_cycle;Max_cycle;Signal;HPM_P1;HPM_P2
2022/02/06 00:01:18;;;;;;;6.55;2.97;;;;;;;5.32;77.05;99505.91;5081936;28;20074;-68
2022/02/06 00:03:44;;;;;;;6.78;3.70;;;;;;;5.37;77.19;99508.38;5081408;28;20511;-68
2022/02/06 00:06:09;;;;;;;9.40;3.38;;;;;;;5.36;76.87;99490.94;5080905;28;20032;-68
2022/02/06 00:08:37;;;;;;;13.73;3.97;;;;;;;5.38;76.48;99497.84;5079887;28;20032;-67
2022/02/06 00:11:02;;;;;;;10.95;4.18;;;;;;;5.43;76.25;99473.31;5079686;28;20112;-68
2022/02/06 00:13:28;;;;;;;12.85;3.15;;;;;;;5.45;76.41;99469.75;5080173;28;20044;-68
2022/02/06 00:15:53;;;;;;;8.88;2.63;;;;;;;5.47;76.05;99467.94;5080023;28;20086;-68
2022/02/06 00:18:18;;;;;;;9.73;3.38;;;;;;;5.51;76.05;99463.44;5086172;28;20036;-68
2022/02/06 00:20:52;;;;;;;10.65;4.43;;;;;;;5.54;75.58;99463.38;5082998;28;20058;-68
2022/02/06 00:23:20;;;;;;;7.75;3.80;;;;;;;5.59;75.46;99456.22;5100136;28;20055;-68
2022/02/06 00:28:36;;;;;;;7.85;3.33;;;;;;;5.66;75.23;99459.44;5102020;28;20039;-69
2022/02/06 00:41:15;;;;;;;15.88;4.18;;;;;;;5.77;74.99;99437.25;5090731;28;20035;-67
2022/02/06 00:43:41;;;;;;;8.48;3.70;;;;;;;5.82;74.84;99427.47;5104265;28;20121;-68
2022/02/06 00:46:08;;;;;;;8.68;4.50;;;;;;;5.83;74.77;99436.19;5101382;28;20053;-67
2022/02/06 00:48:39;;;;;;;10.10;3.15;;;;;;;5.87;74.76;99414.25;5085550;28;20474;-68
2022/02/06 00:53:30;;;;;;;9.52;2.72;;;;;;;5.91;74.25;99412.38;5083222;28;20053;-68
2022/02/06 00:55:55;;;;;;;8.13;3.90;;;;;;;5.93;74.43;99406.19;5082383;28;20040;-67
2022/02/06 00:58:21;;;;;;;10.48;4.25;;;;;;;5.97;74.69;99402.56;5087745;28;20028;-68
2022/02/06 01:00:46;;;;;;;4.82;3.03;;;;;;;6.00;74.54;99406.81;5065535;28;20036;-68
2022/02/06 01:03:11;;;;;;;6.15;3.45;;;;;;;6.03;74.81;99404.13;5083045;28;20040;-68
2022/02/06 01:05:37;;;;;;;8.25;3.17;;;;;;;6.09;74.93;99390.78;5084016;28;20048;-68
2022/02/06 01:08:03;;;;;;;6.93;2.90;;;;;;;6.10;74.18;99391.63;5085779;28;20043;-68
2022/02/06 01:10:28;;;;;;;7.50;4.10;;;;;;;6.11;74.34;99375.91;5093055;28;20039;-68
2022/02/06 01:13:00;;;;;;;7.68;3.05;;;;;;;6.12;74.54;99388.06;5084125;28;20054;-68
2022/02/06 01:15:28;;;;;;;9.30;4.10;;;;;;;6.11;74.73;99375.06;5082515;28;20048;-68
2022/02/06 01:18:02;;;;;;;14.90;3.60;;;;;;;6.11;74.97;99369.81;5083601;27;20028;-69
2022/02/06 01:22:58;;;;;;;10.38;3.03;;;;;;;6.07;74.08;99362.97;5083961;28;20389;-68
2022/02/06 01:25:32;;;;;;;9.85;4.55;;;;;;;6.09;74.37;99362.00;5082683;28;20523;-68
2022/02/06 01:28:14;;;;;;;18.63;3.55;;;;;;;6.12;74.09;99351.41;5082935;28;20156;-67
2022/02/06 01:30:53;;;;;;;18.20;4.43;;;;;;;6.18;73.61;99345.13;5093876;28;20405;-66
2022/02/06 01:33:30;;;;;;;8.88;3.67;;;;;;;6.19;73.53;99352.91;5087928;28;20701;-67
2022/02/06 01:36:08;;;;;;;14.98;3.35;;;;;;;6.22;73.28;99337.06;5100036;28;20061;-67
2022/02/06 01:38:59;;;;;;;12.82;3.30;;;;;;;6.28;72.88;99328.16;5083330;28;20079;-67
2022/02/06 01:41:24;;;;;;;8.55;3.33;;;;;;;6.30;72.66;99325.44;5100904;28;20493;-67
2022/02/06 01:44:08;;;;;;;15.50;3.80;;;;;;;6.35;72.39;99315.63;5100065;28;20040;-57
2022/02/06 02:45:24;;;;;;;11.75;3.50;;;;;;;6.58;71.53;99226.53;5107197;28;20038;-68
2022/02/06 02:47:53;;;;;;;6.82;3.47;;;;;;;6.55;71.71;99213.59;5098996;28;20027;-69
2022/02/06 02:50:22;;;;;;;15.07;5.00;;;;;;;6.51;71.96;99214.63;5087074;28;20039;-69
2022/02/06 02:52:59;;;;;;;6.72;2.92;;;;;;;6.43;73.03;99214.09;5090648;28;20442;-69
2022/02/06 03:00:50;;;;;;;10.45;3.25;;;;;;;6.35;74.30;99210.94;5106379;28;20035;-68
2022/02/06 03:03:19;;;;;;;7.68;3.95;;;;;;;6.32;75.15;99195.34;5086617;28;20103;-68
2022/02/06 03:05:48;;;;;;;14.60;3.42;;;;;;;6.23;76.08;99181.75;5104730;28;20028;-68
2022/02/06 03:08:13;;;;;;;8.82;3.80;;;;;;;6.14;76.50;99171.63;5107896;28;20149;-69
2022/02/06 03:10:39;;;;;;;11.30;4.35;;;;;;;6.11;77.29;99181.41;5089440;28;20122;-68
2022/02/06 03:13:08;;;;;;;12.88;3.30;;;;;;;6.02;78.12;99170.38;5089064;28;20085;-68
2022/02/06 03:15:48;;;;;;;8.68;4.22;;;;;;;5.97;77.26;99169.72;5107077;28;20043;-69
2022/02/06 03:18:30;;;;;;;5.88;3.33;;;;;;;5.94;78.33;99187.31;5107154;28;20548;-69
2022/02/06 03:20:56;;;;;;;11.93;3.53;;;;;;;5.83;78.93;99171.97;5107155;28;20040;-69
2022/02/06 03:23:23;;;;;;;9.20;3.90;;;;;;;5.75;79.54;99171.44;5107178;28;20039;-69
2022/02/06 03:25:54;;;;;;;8.95;3.17;;;;;;;5.68;80.50;99169.97;5088427;28;20484;-69
2022/02/06 03:28:21;;;;;;;11.80;3.40;;;;;;;5.63;80.28;99166.69;5107026;28;20055;-68
2022/02/06 03:30:47;;;;;;;8.45;3.65;;;;;;;5.63;80.47;99169.31;5106806;28;20034;-68
2022/02/06 03:33:13;;;;;;;7.85;3.53;;;;;;;5.66;80.63;99172.69;5106809;28;20032;-69
2022/02/06 03:35:39;;;;;;;14.13;3.70;;;;;;;5.69;80.42;99159.47;5104444;28;20027;-69
2022/02/06 03:38:04;;;;;;;11.95;4.40;;;;;;;5.73;80.13;99165.41;5106540;28;20031;-69
2022/02/06 03:40:36;;;;;;;7.90;3.15;;;;;;;5.73;79.74;99150.56;5106660;28;20035;-68
2022/02/06 03:43:27;;;;;;;13.88;5.80;;;;;;;5.76;80.29;99155.69;5088604;28;20122;-69
2022/02/06 03:45:56;;;;;;;13.55;3.83;;;;;;;5.78;80.10;99132.97;5105993;28;20038;-68
2022/02/06 03:48:27;;;;;;;11.68;3.70;;;;;;;5.77;80.39;99139.09;5105514;28;20043;-69
2022/02/06 03:50:55;;;;;;;8.57;3.80;;;;;;;5.79;80.58;99139.88;5107465;28;20538;-68
2022/02/06 03:53:24;;;;;;;12.85;4.13;;;;;;;5.84;80.71;99144.09;5110779;28;20047;-68
2022/02/06 03:55:52;;;;;;;13.88;4.15;;;;;;;5.87;80.23;99136.94;5110560;28;20036;-68
2022/02/06 03:58:18;;;;;;;9.18;3.47;;;;;;;5.95;79.66;99123.59;5090918;28;20043;-68
2022/02/06 04:00:44;;;;;;;11.73;3.58;;;;;;;6.00;79.78;99117.25;5110382;28;20031;-68
2022/02/06 04:03:10;;;;;;;8.27;3.30;;;;;;;6.05;79.48;99113.59;5110753;28;20051;-68
2022/02/06 04:05:37;;;;;;;9.32;3.40;;;;;;;6.11;79.15;99129.91;5110319;28;20066;-69
2022/02/06 04:08:06;;;;;;;19.90;4.18;;;;;;;6.14;78.99;99115.84;5092087;28;20401;-68
2022/02/06 04:10:40;;;;;;;5.82;3.30;;;;;;;6.17;79.16;99121.78;5109980;28;20376;-71
2022/02/06 04:13:06;;;;;;;8.25;3.10;;;;;;;6.20;78.66;99105.97;5107460;28;20036;-69
2022/02/06 04:15:39;;;;;;;5.60;3.13;;;;;;;6.24;78.71;99123.22;5090504;28;20541;-69
2022/02/06 04:18:13;;;;;;;7.60;3.38;;;;;;;6.26;78.37;99110.09;5089885;28;20038;-70
2022/02/06 04:20:39;;;;;;;8.73;2.80;;;;;;;6.31;78.51;99096.81;5089742;28;20047;-70
2022/02/06 04:23:05;;;;;;;6.47;3.25;;;;;;;6.33;77.75;99098.44;5090253;28;20454;-70
2022/02/06 04:25:30;;;;;;;10.18;2.97;;;;;;;6.36;77.78;99097.47;5090694;28;20032;-71
2022/02/06 04:27:56;;;;;;;10.07;2.70;;;;;;;6.40;78.24;99084.16;5089745;28;20040;-70
2022/02/06 04:30:22;;;;;;;7.28;2.92;;;;;;;6.37;77.90;99084.28;5088497;28;20417;-70
2022/02/06 04:32:47;;;;;;;6.97;2.78;;;;;;;6.36;78.53;99097.47;5089215;28;20035;-70
2022/02/06 04:35:17;;;;;;;8.38;3.90;;;;;;;6.35;78.91;99098.34;5088914;28;20024;-68
2022/02/06 04:46:03;;;;;;;9.23;3.65;;;;;;;6.25;79.73;99071.72;5088987;28;20548;-69
2022/02/06 04:48:33;;;;;;;9.30;3.15;;;;;;;6.22;80.31;99070.09;5088670;28;20024;-69
2022/02/06 05:31:33;;;;;;;8.98;3.45;;;;;;;5.88;83.18;98992.19;5109022;28;20823;-69
2022/02/06 05:33:58;;;;;;;10.55;3.58;;;;;;;5.88;82.84;98986.06;5109140;28;20412;-69
2022/02/06 05:36:24;;;;;;;6.82;3.42;;;;;;;5.85;83.62;98971.38;5108881;28;20035;-69
2022/02/06 05:38:49;;;;;;;10.77;3.65;;;;;;;5.88;82.78;98983.47;5108928;28;20549;-69
2022/02/06 05:41:15;;;;;;;8.05;3.03;;;;;;;5.90;82.87;98979.03;5090350;28;20078;-69
2022/02/06 05:43:40;;;;;;;6.60;3.30;;;;;;;5.89;83.46;98956.41;5090769;28;20035;-69
2022/02/06 05:46:05;;;;;;;9.13;2.55;;;;;;;5.86;83.11;98961.75;5109304;28;20111;-69
2022/02/06 05:48:31;;;;;;;6.47;3.15;;;;;;;5.85;83.13;98965.28;5108850;28;20455;-69
2022/02/06 05:50:56;;;;;;;7.13;2.58;;;;;;;5.85;83.33;98966.13;5108274;28;20777;-69
2022/02/06 05:53:22;;;;;;;7.13;2.85;;;;;;;5.84;83.26;98956.59;5107793;28;20092;-69
2022/02/06 05:55:47;;;;;;;7.05;2.25;;;;;;;5.82;83.92;98950.59;5107182;28;20035;-69
2022/02/06 05:58:13;;;;;;;9.95;2.95;;;;;;;5.79;83.97;98948.09;5090556;28;20115;-69
2022/02/06 06:00:38;;;;;;;13.85;3.55;;;;;;;5.79;84.44;98942.88;5108307;28;20114;-69
2022/02/06 06:03:06;;;;;;;4.35;2.53;;;;;;;5.80;83.90;98945.41;5108996;28;20043;-68
2022/02/06 06:05:32;;;;;;;11.20;3.13;;;;;;;5.81;83.99;98943.66;5089731;28;20079;-69
2022/02/06 06:07:57;;;;;;;9.10;3.72;;;;;;;5.82;84.43;98950.59;5109013;28;20059;-69
2022/02/06 06:10:22;;;;;;;6.13;3.22;;;;;;;5.84;84.44;98930.44;5108039;28;20035;-70
2022/02/06 06:12:48;;;;;;;6.82;2.55;;;;;;;5.82;84.43;98940.97;5089661;28;20495;-69
2022/02/06 06:15:13;;;;;;;6.65;3.45;;;;;;;5.81;84.33;98933.22;5085830;28;20093;-69
2022/02/06 06:17:39;;;;;;;13.05;3.70;;;;;;;5.83;84.54;98928.72;5088296;28;20557;-70
2022/02/06 06:20:10;;;;;;;7.85;2.90;;;;;;;5.84;84.44;98929.59;5087606;28;20039;-68
2022/02/06 06:22:35;;;;;;;7.43;2.78;;;;;;;5.86;83.78;98925.13;5105469;28;20106;-67
2022/02/06 06:25:03;;;;;;;6.45;2.88;;;;;;;5.87;84.42;98921.63;5107929;28;20167;-68
2022/02/06 06:27:28;;;;;;;6.97;3.65;;;;;;;5.88;84.17;98920.69;5107750;28;20035;-69
2022/02/06 06:29:54;;;;;;;11.05;2.90;;;;;;;5.88;83.62;98913.72;5087145;28;20036;-69
2022/02/06 06:32:19;;;;;;;12.05;4.25;;;;;;;5.88;84.13;98911.09;5087653;28;20036;-69
2022/02/06 06:34:45;;;;;;;7.40;3.53;;;;;;;5.90;83.85;98914.47;5087009;28;20047;-69
2022/02/06 06:37:10;;;;;;;11.93;3.22;;;;;;;5.90;83.60;98896.16;5087404;28;20036;-70
2022/02/06 06:39:41;;;;;;;9.13;3.72;;;;;;;5.94;83.85;98891.69;5087818;28;20516;-68
2022/02/06 06:42:07;;;;;;;8.45;3.40;;;;;;;5.95;83.63;98896.00;5090841;28;20030;-69
2022/02/06 06:44:32;;;;;;;7.30;3.70;;;;;;;5.93;83.80;98909.13;5087119;28;20024;-69
2022/02/06 06:46:58;;;;;;;12.40;3.50;;;;;;;5.97;84.07;98896.78;5087396;28;20056;-69
2022/02/06 06:49:23;;;;;;;7.43;2.60;;;;;;;5.96;83.68;98893.31;5086941;28;20038;-69
2022/02/06 06:51:49;;;;;;;10.80;2.83;;;;;;;5.95;84.46;98893.38;5090303;28;20496;-69
2022/02/06 06:54:19;;;;;;;5.95;3.30;;;;;;;5.94;84.29;98884.69;5076417;28;20032;-70
2022/02/06 06:56:59;;;;;;;8.32;2.90;;;;;;;5.93;84.69;98884.72;5086171;28;20036;-70
2022/02/06 06:59:46;;;;;;;5.43;2.33;;;;;;;5.90;84.47;98877.00;5106711;28;20028;-70
2022/02/06 07:02:27;;;;;;;11.60;3.33;;;;;;;5.89;84.15;98875.31;5107450;28;20055;-70
2022/02/06 07:04:57;;;;;;;12.70;3.03;;;;;;;5.89;84.30;98880.56;5107197;28;20117;-70
2022/02/06 07:07:24;;;;;;;8.32;3.10;;;;;;;5.88;84.98;98884.06;5107070;28;20036;-70
2022/02/06 07:09:49;;;;;;;7.18;2.58;;;;;;;5.88;85.10;98871.00;5088396;28;20035;-70
2022/02/06 07:12:14;;;;;;;7.53;2.75;;;;;;;5.87;84.79;98879.75;5089201;28;20035;-69
2022/02/06 07:14:41;;;;;;;7.60;2.60;;;;;;;5.86;85.06;98886.78;5108090;28;20115;-69
2022/02/06 07:17:07;;;;;;;4.63;2.38;;;;;;;5.89;84.98;98875.31;5107535;28;20496;-70
2022/02/06 07:19:32;;;;;;;7.28;2.30;;;;;;;5.90;85.07;98871.78;5106966;28;20039;-70
2022/02/06 07:21:59;;;;;;;3.55;2.05;;;;;;;5.90;85.26;98882.25;5107639;28;20261;-70
2022/02/06 07:24:26;;;;;;;8.75;2.70;;;;;;;5.89;85.44;98898.88;5107722;28;20442;-70
2022/02/06 07:26:56;;;;;;;5.38;2.00;;;;;;;5.85;85.08;98876.38;5110275;28;20035;-69
2022/02/06 07:29:22;;;;;;;7.22;2.63;;;;;;;5.88;85.43;98873.59;5111489;28;20819;-70
2022/02/06 07:31:48;;;;;;;4.18;2.08;;;;;;;5.88;85.52;98864.00;5110767;28;20039;-70
2022/02/06 07:34:13;;;;;;;4.45;1.67;;;;;;;5.87;84.91;98862.31;5108693;28;20038;-70
2022/02/06 07:36:38;;;;;;;5.95;1.90;;;;;;;5.90;85.11;98832.53;5111177;28;20038;-69
2022/02/06 07:39:04;;;;;;;4.65;1.52;;;;;;;5.85;85.16;98843.19;5111032;28;20142;-69
2022/02/06 07:41:29;;;;;;;2.78;1.55;;;;;;;5.86;85.30;98828.34;5111587;28;20023;-70
2022/02/06 07:43:55;;;;;;;3.10;1.60;;;;;;;5.86;85.48;98820.50;5111818;28;20031;-69
2022/02/06 07:46:24;;;;;;;4.55;1.80;;;;;;;5.86;85.20;98829.22;5111429;28;20044;-69
2022/02/06 07:48:50;;;;;;;2.38;1.63;;;;;;;5.89;85.16;98815.16;5110981;28;20035;-69
2022/02/06 07:51:15;;;;;;;4.72;1.40;;;;;;;5.91;85.30;98810.72;5110705;28;20036;-68
2022/02/06 07:53:41;;;;;;;5.63;2.88;;;;;;;5.92;85.20;98801.94;5111229;28;20055;-69
2022/02/06 07:56:06;;;;;;;2.90;1.38;;;;;;;5.92;84.94;98792.31;5111166;28;20102;-70
2022/02/06 07:58:31;;;;;;;2.83;1.60;;;;;;;5.94;85.24;98789.66;5111069;28;20765;-69
2022/02/06 08:00:57;;;;;;;4.32;1.95;;;;;;;5.95;85.24;98784.34;5109598;28;20031;-68
2022/02/06 08:03:24;;;;;;;3.05;1.52;;;;;;;5.92;85.34;98797.53;5110746;28;20051;-68
2022/02/06 08:05:50;;;;;;;2.72;1.63;;;;;;;5.93;85.42;98780.06;5110771;28;20039;-68
2022/02/06 08:08:16;;;;;;;4.97;1.65;;;;;;;5.92;85.28;98773.16;5110646;28;20031;-71
2022/02/06 08:10:42;;;;;;;2.45;1.92;;;;;;;5.94;85.34;98771.34;5110535;28;20032;-69
2022/02/06 08:13:21;;;;;;;2.13;1.55;;;;;;;5.92;85.44;98767.94;5110297;28;20759;-68
2022/02/06 08:15:46;;;;;;;2.67;1.80;;;;;;;5.93;85.28;98764.38;5099564;28;20111;-69
2022/02/06 08:18:12;;;;;;;3.90;2.22;;;;;;;5.90;85.48;98747.06;5090742;28;20119;-69
2022/02/06 08:20:38;;;;;;;2.15;1.50;;;;;;;5.90;85.93;98756.69;5086687;28;20043;-69
2022/02/06 08:23:04;;;;;;;4.47;1.27;;;;;;;5.92;86.34;98731.31;5111013;28;20028;-70
2022/02/06 08:25:30;;;;;;;3.42;1.50;;;;;;;5.93;85.91;98743.44;5109797;28;20032;-70
2022/02/06 08:27:55;;;;;;;2.80;1.42;;;;;;;5.95;86.03;98728.56;5110421;28;20380;-70
2022/02/06 08:30:21;;;;;;;1.77;1.30;;;;;;;5.95;85.76;98739.03;5110254;28;20032;-69
2022/02/06 08:32:46;;;;;;;3.15;1.60;;;;;;;5.97;85.37;98730.19;5107167;28;20039;-69
2022/02/06 08:35:12;;;;;;;2.42;1.42;;;;;;;5.98;85.49;98713.59;5108166;28;20027;-69
2022/02/06 08:37:37;;;;;;;1.85;1.52;;;;;;;5.98;85.95;98715.34;5109412;28;20031;-70
2022/02/06 08:40:12;;;;;;;5.97;1.35;;;;;;;6.04;85.84;98698.53;5103458;28;20058;-70
2022/02/06 08:42:41;;;;;;;2.53;1.30;;;;;;;6.07;85.38;98698.38;5117543;28;20035;-70
2022/02/06 08:45:07;;;;;;;3.85;1.77;;;;;;;6.06;85.13;98699.31;5113864;28;20027;-70
2022/02/06 08:47:32;;;;;;;2.22;1.48;;;;;;;6.08;86.11;98690.47;5111354;28;20134;-72
2022/02/06 08:49:57;;;;;;;2.38;1.40;;;;;;;6.06;85.32;98668.75;5113728;28;20043;-70
2022/02/06 08:52:23;;;;;;;2.28;1.25;;;;;;;6.08;85.03;98664.28;5109303;28;20077;-70
2022/02/06 08:54:49;;;;;;;1.40;1.20;;;;;;;6.10;84.97;98666.81;5091449;28;20040;-70
2022/02/06 08:57:22;;;;;;;1.58;1.10;;;;;;;6.10;84.68;98664.19;5091808;28;20077;-71
2022/02/06 08:59:48;;;;;;;2.55;1.23;;;;;;;6.08;84.72;98661.69;5107885;28;20027;-70
2022/02/06 09:02:13;;;;;;;2.40;1.45;;;;;;;6.08;84.86;98660.81;5094409;28;20025;-69
2022/02/06 09:04:39;;;;;;;2.17;1.20;;;;;;;6.06;84.63;98657.44;5089731;28;20032;-69
2022/02/06 09:07:04;;;;;;;2.22;1.30;;;;;;;6.05;84.90;98635.63;5088165;28;20032;-69
2022/02/06 09:09:30;;;;;;;1.95;1.40;;;;;;;6.08;85.46;98637.25;5087194;28;20111;-68
2022/02/06 09:11:56;;;;;;;1.45;1.30;;;;;;;6.07;85.14;98644.25;5088135;28;20036;-69
2022/02/06 09:14:24;;;;;;;1.15;1.08;;;;;;;6.08;85.13;98634.63;5087926;28;20055;-68
2022/02/06 09:16:51;;;;;;;2.80;1.23;;;;;;;6.10;85.11;98617.09;5088201;28;20102;-70
2022/02/06 09:19:18;;;;;;;2.30;1.23;;;;;;;6.10;84.79;98609.25;5089158;28;20038;-70
2022/02/06 09:21:44;;;;;;;3.30;1.70;;;;;;;6.12;84.25;98605.63;5107182;28;20044;-68
2022/02/06 09:24:09;;;;;;;6.15;1.42;;;;;;;6.15;84.59;98618.59;5109564;28;20063;-70
2022/02/06 09:26:37;;;;;;;1.85;1.40;;;;;;;6.14;84.67;98603.78;5109269;28;20043;-69
2022/02/06 09:29:03;;;;;;;1.67;1.40;;;;;;;6.17;84.94;98605.41;5108585;28;20123;-69
2022/02/06 09:31:28;;;;;;;2.08;1.27;;;;;;;6.18;84.71;98600.09;5109275;28;20032;-69
2022/02/06 09:36:19;;;;;;;5.07;1.80;;;;;;;6.23;84.17;98574.53;5106877;28;20073;-69
2022/02/06 09:38:45;;;;;;;2.45;1.23;;;;;;;6.27;84.03;98579.63;5095498;28;20040;-69
2022/02/06 09:41:10;;;;;;;3.05;1.30;;;;;;;6.31;84.13;98568.06;5088344;28;20111;-70
2022/02/06 09:43:38;;;;;;;2.80;1.30;;;;;;;6.28;83.92;98545.53;5070103;28;20135;-68
2022/02/06 09:46:03;;;;;;;2.20;1.10;;;;;;;6.26;83.62;98551.78;5087587;28;20060;-69
2022/02/06 09:48:30;;;;;;;1.98;1.23;;;;;;;6.27;84.07;98543.81;5088099;28;20389;-73
2022/02/06 09:50:57;;;;;;;2.58;1.00;;;;;;;6.28;84.18;98545.53;5087753;28;20031;-69
2022/02/06 09:53:22;;;;;;;2.10;1.15;;;;;;;6.29;84.57;98555.06;5087784;28;20196;-68
2022/02/06 09:55:48;;;;;;;4.35;1.45;;;;;;;6.31;84.23;98534.06;5087015;28;20154;-70
2022/02/06 09:58:44;;;;;;;2.17;1.35;;;;;;;6.32;84.53;98530.50;5088740;28;20032;-69
2022/02/06 10:01:00;;;;;;;3.25;1.30;;;;;;;6.31;84.41;98528.81;5106779;28;20046;-69
2022/02/06 10:03:27;;;;;;;2.60;1.23;;;;;;;6.31;84.45;98518.34;5108008;28;20035;-69
2022/02/06 10:05:53;;;;;;;2.38;1.48;;;;;;;6.32;84.24;98497.31;5108057;28;20110;-69
2022/02/06 10:08:31;;;;;;;2.63;1.40;;;;;;;6.32;83.77;98497.31;5108343;28;20456;-69
2022/02/06 10:11:09;;;;;;;1.73;1.00;;;;;;;6.33;84.39;98479.84;5106460;28;20074;-68
2022/02/06 10:13:37;;;;;;;1.52;1.00;;;;;;;6.35;84.55;98477.97;5108232;28;20055;-69
2022/02/06 10:16:14;;;;;;;4.95;1.30;;;;;;;6.35;83.86;98484.09;5107524;28;20147;-69
2022/02/06 10:18:41;;;;;;;1.88;1.27;;;;;;;6.36;84.16;98479.69;5108652;28;20035;-69
2022/02/06 10:21:08;;;;;;;2.00;1.08;;;;;;;6.35;83.93;98460.53;5092979;28;20032;-69
2022/02/06 10:23:40;;;;;;;3.30;1.10;;;;;;;6.33;84.07;98453.69;5089510;28;20412;-69
2022/02/06 10:26:41;;;;;;;1.60;1.30;;;;;;;6.32;83.86;98441.50;5087408;28;20052;-69
2022/02/06 10:31:47;;;;;;;1.23;0.73;;;;;;;6.37;84.00;98434.25;5091492;28;20032;-67
2022/02/06 10:34:28;;;;;;;1.25;1.10;;;;;;;6.40;83.89;98423.63;5106817;28;20156;-67
2022/02/06 10:37:22;;;;;;;2.17;1.42;;;;;;;6.43;84.08;98413.00;5107436;28;20046;-67
2022/02/06 10:40:06;;;;;;;1.17;1.08;;;;;;;6.44;84.18;98410.28;5108114;28;20054;-67
2022/02/06 10:42:33;;;;;;;1.90;1.30;;;;;;;6.46;84.03;98402.34;5093060;28;20047;-66
2022/02/06 10:45:21;;;;;;;3.92;1.77;;;;;;;6.45;84.09;98377.94;5085129;28;20028;-67
2022/02/06 10:47:52;;;;;;;1.20;1.10;;;;;;;6.47;83.45;98379.63;5105174;28;20035;-67
2022/02/06 10:50:19;;;;;;;1.23;1.10;;;;;;;6.44;83.72;98363.16;5103704;28;20092;-67
2022/02/06 10:52:45;;;;;;;2.63;1.13;;;;;;;6.42;83.65;98349.34;5107760;28;20063;-68
2022/02/06 10:55:15;;;;;;;4.13;1.67;;;;;;;6.48;84.45;98365.63;5089063;28;20043;-68
2022/02/06 10:57:54;;;;;;;1.55;1.30;;;;;;;6.96;87.53;98362.00;5107709;28;20032;-63
2022/02/06 11:00:26;;;;;;;1.20;1.10;;;;;;;7.32;83.53;98338.03;5093458;28;20028;-58
2022/02/06 11:03:02;;;;;;;4.45;1.33;;;;;;;7.50;80.44;98343.97;5081645;28;20130;-63
2022/02/06 11:05:36;;;;;;;2.30;1.65;;;;;;;7.50;80.42;98343.13;5083063;27;20579;-63
2022/02/06 11:08:03;;;;;;;4.03;1.23;;;;;;;7.73;80.32;98334.72;5084890;28;20040;-62
2022/02/06 11:10:35;;;;;;;1.88;1.25;;;;;;;7.74;78.75;98322.44;5098026;28;20051;-63
2022/02/06 11:13:03;;;;;;;1.20;1.10;;;;;;;7.27;80.20;98310.44;5081907;28;20059;-69
2022/02/06 11:15:40;;;;;;;3.20;1.13;;;;;;;6.98;81.75;98307.72;5097928;28;20038;-69
2022/02/06 11:18:16;;;;;;;1.90;1.35;;;;;;;6.79;82.62;98294.00;5102814;28;20039;-69
2022/02/06 11:20:58;;;;;;;2.70;1.50;;;;;;;6.63;84.60;98276.56;5099329;28;20039;-69
2022/02/06 11:23:48;;;;;;;2.33;1.40;;;;;;;6.56;85.11;98283.09;5081686;28;20092;-69
2022/02/06 11:26:20;;;;;;;2.05;1.50;;;;;;;6.51;85.60;98248.47;5065040;28;20494;-70
2022/02/06 11:28:46;;;;;;;1.92;1.65;;;;;;;6.53;84.65;98230.06;5101865;28;20040;-69
2022/02/06 11:31:14;;;;;;;4.93;1.10;;;;;;;6.54;83.71;98226.50;5100990;28;20046;-69
2022/02/06 11:33:39;;;;;;;3.17;1.20;;;;;;;6.55;84.01;98238.69;5100808;28;20107;-69
2022/02/06 11:36:15;;;;;;;1.10;1.00;;;;;;;6.60;83.96;98202.59;5100501;28;20039;-69
2022/02/06 11:45:27;;;;;;;1.38;1.20;;;;;;;6.63;83.67;98182.31;5102404;28;20109;-67
2022/02/06 11:48:04;;;;;;;1.23;1.13;;;;;;;6.63;84.05;98187.53;5101429;28;20423;-69
2022/02/06 11:50:31;;;;;;;3.30;1.40;;;;;;;6.65;84.08;98150.81;5101511;28;20126;-68
2022/02/06 11:53:00;;;;;;;2.65;1.73;;;;;;;6.66;84.34;98155.94;5101902;28;20050;-69
2022/02/06 11:55:44;;;;;;;1.63;1.40;;;;;;;6.69;84.31;98161.94;5101968;28;20035;-69
2022/02/06 11:58:31;;;;;;;1.30;1.20;;;;;;;6.71;84.58;98149.59;5102245;28;26150;-69
2022/02/06 12:01:05;;;;;;;2.78;1.35;;;;;;;6.67;84.86;98162.03;5090502;28;20066;-69
2022/02/06 12:03:50;;;;;;;1.60;1.20;;;;;;;6.67;85.38;98138.47;5094898;28;20057;-68
2022/02/06 12:06:16;;;;;;;1.30;1.20;;;;;;;6.68;85.02;98139.31;5082174;28;20028;-70
2022/02/06 12:09:00;;;;;;;2.45;1.20;;;;;;;6.73;85.77;98117.13;5100663;28;20827;-72
2022/02/06 12:11:27;;;;;;;1.67;1.27;;;;;;;6.77;85.91;98143.97;5101859;28;20048;-69
2022/02/06 12:14:20;;;;;;;1.95;1.30;;;;;;;6.84;86.44;98126.94;5091018;28;20057;-69
2022/02/06 12:17:44;;;;;;;4.20;2.28;;;;;;;6.87;86.67;98135.47;5104443;28;20040;-68
2022/02/06 12:20:15;;;;;;;1.83;1.10;;;;;;;6.93;86.52;98117.72;5084735;28;20116;-69
2022/02/06 12:22:44;;;;;;;1.70;1.15;;;;;;;6.97;87.09;98124.44;5084902;28;20082;-69
2022/02/06 12:25:26;;;;;;;2.10;1.48;;;;;;;7.07;86.26;98126.41;5084336;28;20505;-70
2022/02/06 12:28:19;;;;;;;2.28;1.40;;;;;;;7.20;85.72;98099.44;5085306;28;20032;-70
2022/02/06 12:30:53;;;;;;;1.45;1.15;;;;;;;7.31;85.92;98099.63;5063966;28;20436;-69
2022/02/06 12:33:36;;;;;;;3.15;1.75;;;;;;;7.40;85.79;98095.56;5081921;28;20035;-70
2022/02/06 12:38:45;;;;;;;1.90;1.20;;;;;;;7.73;84.20;98106.50;5084484;28;20089;-70
2022/02/06 12:41:17;;;;;;;2.00;1.20;;;;;;;7.86;84.15;98089.97;5097780;28;20052;-71
2022/02/06 12:43:52;;;;;;;2.85;2.38;;;;;;;7.92;83.89;98090.41;5083570;28;20369;-70
2022/02/06 12:46:20;;;;;;;1.67;1.35;;;;;;;8.01;83.07;98115.22;5090998;28;20409;-68
2022/02/06 12:48:45;;;;;;;1.20;1.10;;;;;;;8.05;82.91;98086.97;5083083;28;20513;-68
2022/02/06 12:51:10;;;;;;;1.30;1.10;;;;;;;8.05;83.24;98089.59;5084631;28;20054;-68
2022/02/06 12:53:36;;;;;;;5.45;2.08;;;;;;;8.06;83.01;98075.53;5083687;28;20040;-68
2022/02/06 12:56:01;;;;;;;3.20;1.30;;;;;;;7.95;83.63;98098.09;5083120;28;20572;-68
2022/02/06 12:58:27;;;;;;;2.05;1.38;;;;;;;7.87;83.67;98139.72;5066001;28;20153;-69
2022/02/06 13:00:55;;;;;;;4.65;3.20;;;;;;;7.79;84.68;98128.88;5082926;28;20405;-68
2022/02/06 13:03:30;;;;;;;1.50;1.10;;;;;;;7.67;82.07;98145.41;5097460;28;20589;-69
2022/02/06 13:05:58;;;;;;;1.20;1.10;;;;;;;7.49;81.97;98123.81;5103862;28;20036;-67
2022/02/06 13:08:24;;;;;;;6.32;1.27;;;;;;;7.34;82.21;98099.41;5105267;28;20035;-68
2022/02/06 13:11:01;;;;;;;4.30;1.27;;;;;;;7.22;82.96;98122.00;5105151;28;20043;-68
2022/02/06 13:13:36;;;;;;;2.63;1.45;;;;;;;7.15;83.17;98152.13;5105036;28;20139;-67
2022/02/06 13:26:48;;;;;;;5.68;1.67;;;;;;;6.47;82.58;98303.72;5100628;28;20088;-69
2022/02/06 13:29:31;;;;;;;1.30;1.15;;;;;;;6.20;82.81;98288.63;5103913;28;20086;-69
2022/02/06 13:37:41;;;;;;;2.92;1.25;;;;;;;5.75;83.74;98285.78;5068205;28;20035;-69
2022/02/06 13:40:14;;;;;;;5.03;1.90;;;;;;;5.70;84.61;98287.81;5101241;28;20051;-68
2022/02/06 13:42:41;;;;;;;9.00;3.75;;;;;;;5.65;84.50;98284.59;5103348;28;20123;-68
2022/02/06 13:45:12;;;;;;;11.95;5.90;;;;;;;5.62;85.05;98283.91;5102905;28;20373;-69
2022/02/06 13:47:38;;;;;;;9.65;4.15;;;;;;;5.58;85.01;98280.59;5103477;28;20081;-68
2022/02/06 13:50:08;;;;;;;4.65;2.30;;;;;;;5.55;85.26;98293.84;5102717;28;20567;-68
2022/02/06 13:52:33;;;;;;;5.38;1.88;;;;;;;5.51;85.18;98290.56;5102881;28;20763;-68
2022/02/06 13:55:05;;;;;;;3.08;1.83;;;;;;;5.53;85.32;98298.31;5102401;28;20046;-68
2022/02/06 13:57:35;;;;;;;3.17;1.90;;;;;;;5.52;85.19;98296.63;5103138;28;20031;-68
2022/02/06 14:00:16;;;;;;;3.22;2.13;;;;;;;5.54;85.19;98292.16;5101695;28;20036;-68
2022/02/06 14:02:55;;;;;;;5.43;2.40;;;;;;;5.52;84.98;98287.00;5102620;28;20876;-69
2022/02/06 14:05:23;;;;;;;4.53;2.80;;;;;;;5.49;84.88;98279.34;5102537;28;20477;-68
2022/02/06 14:08:07;;;;;;;4.80;2.50;;;;;;;5.49;85.08;98288.94;5103523;28;20035;-68
2022/02/06 14:10:44;;;;;;;3.00;2.33;;;;;;;5.49;84.97;98279.34;5100041;28;20032;-68
2022/02/06 14:13:25;;;;;;;5.95;2.60;;;;;;;5.52;85.10;98273.09;5081783;28;20112;-69
2022/02/06 14:16:10;;;;;;;11.45;3.08;;;;;;;5.55;84.90;98259.88;5102133;28;20031;-69
2022/02/06 14:18:48;;;;;;;7.07;2.25;;;;;;;5.55;84.64;98262.47;5102470;28;20103;-69
2022/02/06 14:21:15;;;;;;;4.28;2.60;;;;;;;5.52;83.57;98267.88;5102544;27;20032;-70
2022/02/06 14:23:41;;;;;;;9.05;3.17;;;;;;;5.49;83.72;98261.06;5082079;28;20032;-68
2022/02/06 14:26:12;;;;;;;13.93;6.80;;;;;;;5.48;83.33;98255.88;5081767;28;20039;-68
2022/02/06 14:28:46;;;;;;;8.55;4.25;;;;;;;5.50;83.55;98262.72;5085326;28;20411;-69
2022/02/06 14:31:30;;;;;;;4.95;2.35;;;;;;;5.52;83.19;98268.72;5081759;28;20493;-69
2022/02/06 14:34:25;;;;;;;3.95;1.98;;;;;;;5.54;82.80;98274.72;5080807;28;20633;-69
2022/02/06 14:37:14;;;;;;;3.88;2.00;;;;;;;5.53;81.67;98275.63;5066881;28;20051;-69